< Cyclone 197509 1975 Season Cyclone 197512 >
Cyclone 197510 (TRIXIE)
General InformationTrack Information on Google MapsDetailed Wind Information || ResourceGoogle EarthGE AnimationAtom FeedGeoJSON
Detalied Best Track (Time Zone = UTC)
Year Month Day Hour Lat. Long. Pressure (hPa) Wind (kt) Class Image Chart
1975 2 15 00 -16.6 123.6 997 25 2 -- --
1975 2 15 03 -16.6 123.4 994 30 2 -- --
1975 2 15 06 -16.6 123.2 993 30 2 -- --
1975 2 15 09 -16.5 123.0 993 30 2 -- --
1975 2 15 12 -16.5 122.8 994 30 2 -- --
1975 2 15 15 -16.5 122.7 997 30 2 -- --
1975 2 15 18 -16.6 122.6 993 35 3 -- --
1975 2 15 21 -16.6 122.4 993 40 3 -- --
1975 2 16 00 -16.6 122.2 993 40 3 -- --
1975 2 16 03 -16.7 122.0 990 45 3 -- --
1975 2 16 06 -16.8 121.8 987 50 4 -- --
1975 2 16 09 -16.9 121.6 984 50 4 -- --
1975 2 16 12 -17.0 121.5 981 55 4 -- --
1975 2 16 15 -17.1 121.4 978 60 4 -- --
1975 2 16 18 -17.2 121.3 976 60 4 -- --
1975 2 16 21 -17.3 121.2 973 65 5 -- --
1975 2 17 00 -17.5 121.1 970 70 5 -- --
1975 2 17 03 -17.7 120.9 966 75 5 -- --
1975 2 17 06 -17.9 120.7 963 80 5 -- --
1975 2 17 09 -18.2 120.5 960 80 5 -- --
1975 2 17 12 -18.5 120.4 958 85 5 -- --
1975 2 17 15 -18.7 120.1 956 85 5 -- --
1975 2 17 18 -18.9 119.7 954 90 5 -- --
1975 2 17 21 -19.1 119.3 952 90 5 -- --
1975 2 18 00 -19.3 118.8 950 90 5 -- --
1975 2 18 03 -19.5 118.4 946 95 5 -- --
1975 2 18 06 -19.7 118.0 943 100 5 -- --
1975 2 18 09 -19.9 117.6 940 100 5 -- --
1975 2 18 12 -20.1 117.2 937 105 5 -- --
1975 2 18 15 -20.3 116.9 934 105 5 -- --
1975 2 18 18 -20.5 116.5 931 110 5 -- --
1975 2 18 21 -20.7 116.2 928 110 5 -- --
1975 2 19 00 -20.9 115.9 925 115 5 -- --
1975 2 19 03 -21.3 115.5 925 115 5 -- --
1975 2 19 06 -21.7 115.2 935 105 5 -- --
1975 2 19 09 -21.9 115.0 945 95 5 -- --
1975 2 19 12 -22.2 114.9 955 80 5 -- --
1975 2 19 15 -22.4 114.8 965 70 5 -- --
1975 2 19 18 -22.8 114.7 970 68 5 -- --
1975 2 19 21 -23.2 114.7 973 55 4 -- --
1975 2 20 00 -23.6 114.7 975 50 4 -- --
1975 2 20 03 -24.0 114.7 976 45 3 -- --
1975 2 20 06 -24.3 114.6 976 40 3 -- --
1975 2 20 09 -24.6 114.5 977 40 3 -- --
1975 2 20 12 -24.9 114.5 979 35 3 -- --
1975 2 20 15 -25.2 114.6 979 35 3 -- --
1975 2 20 18 -25.6 114.7 979 30 2 -- --
1975 2 20 21 -25.9 114.9 980 30 2 -- --
1975 2 21 00 -26.1 115.2 980 30 2 -- --
1975 2 21 03 -26.2 115.5 980 30 2 -- --
1975 2 21 06 -26.3 115.9 981 30 2 -- --
1975 2 21 09 -26.4 116.3 983 30 2 -- --
1975 2 21 12 -26.5 116.7 985 30 2 -- --
1975 2 21 15 -26.6 117.1 986 25 2 -- --
1975 2 21 18 -26.7 117.5 985 25 2 -- --
1975 2 21 21 -26.8 117.9 986 25 2 -- --
1975 2 22 00 -26.9 118.3 987 0 0 -- --
< Cyclone 197509 1975 Season Cyclone 197512 >

Help